Time;durP1;ratioP1;P1;durP2;ratioP2;P2;SDS_P1;SDS_P2;PMS_P1;PMS_P2;Temp;Humidity;BMP_temperature;BMP_pressure;BME280_temperature;BME280_humidity;BME280_pressure;Samples;Min_cycle;Max_cycle;Signal;HPM_P1;HPM_P2
2022/02/28 00:00:46;;;;;;;;;11.00;11.00;;;;;7.86;44.09;102259.84;5058855;28;45347;-47
2022/02/28 00:03:11;;;;;;;;;15.75;15.00;;;;;7.82;44.03;102261.50;5060907;28;47695;-50
2022/02/28 00:05:37;;;;;;;;;20.50;17.25;;;;;7.79;44.09;102256.22;5059980;28;45329;-50
2022/02/28 00:08:02;;;;;;;;;18.25;18.00;;;;;7.79;44.02;102262.34;5059243;28;45364;-50
2022/02/28 00:10:28;;;;;;;;;23.00;18.25;;;;;7.77;43.94;102265.78;5058557;28;46151;-49
2022/02/28 00:12:53;;;;;;;;;18.25;17.75;;;;;7.73;44.26;102264.81;5059640;28;45774;-48
2022/02/28 00:15:19;;;;;;;;;22.50;18.50;;;;;7.71;44.28;102266.53;5059972;28;45269;-53
2022/02/28 00:17:45;;;;;;;;;19.00;19.00;;;;;7.67;44.27;102269.91;5059901;28;45261;-47
2022/02/28 00:20:13;;;;;;;;;22.75;19.75;;;;;7.68;44.29;102273.44;5059975;28;45447;-48
2022/02/28 00:22:39;;;;;;;;;20.25;18.75;;;;;7.64;43.91;102269.84;5058314;28;46973;-49
2022/02/28 00:25:07;;;;;;;;;29.25;22.50;;;;;7.64;44.31;102282.94;5059738;28;45351;-46
2022/02/28 00:27:33;;;;;;;;;22.50;17.00;;;;;7.61;44.36;102270.69;5059676;28;45415;-47
2022/02/28 00:29:59;;;;;;;;;17.75;16.25;;;;;7.57;44.40;102268.84;5059365;28;45383;-47
2022/02/28 00:32:24;;;;;;;;;22.75;18.75;;;;;7.56;44.36;102274.03;5058206;28;47002;-47
2022/02/28 00:34:51;;;;;;;;;17.00;16.00;;;;;7.51;44.38;102279.16;5058528;28;45351;-48
2022/02/28 00:37:17;;;;;;;;;17.50;14.25;;;;;7.48;44.38;102274.75;5059677;28;45246;-50
2022/02/28 00:39:42;;;;;;;;;10.00;5.00;;;;;7.48;44.62;102281.69;5058223;28;45422;-49
2022/02/28 00:42:08;;;;;;;;;16.50;16.00;;;;;7.46;44.48;102278.19;5058088;28;48768;-48
2022/02/28 00:44:34;;;;;;;;;18.50;17.50;;;;;7.43;44.59;102272.84;5059317;28;45273;-50
2022/02/28 00:46:59;;;;;;;;;17.00;11.50;;;;;7.41;44.63;102277.16;5059531;28;45529;-51
2022/02/28 00:49:24;;;;;;;;;12.00;12.00;;;;;7.39;44.62;102282.38;5059505;28;45403;-51
2022/02/28 00:51:50;;;;;;;;;15.75;14.00;;;;;7.37;44.70;102285.78;5059314;28;45329;-49
2022/02/28 00:54:15;;;;;;;;;20.50;14.50;;;;;7.35;44.48;102279.66;5059328;28;45236;-47
2022/02/28 00:56:40;;;;;;;;;18.25;14.50;;;;;7.33;44.68;102287.44;5059503;28;45204;-46
2022/02/28 00:59:06;;;;;;;;;19.75;15.25;;;;;7.30;44.66;102282.16;5059228;28;45442;-48
2022/02/28 01:01:31;;;;;;;;;15.00;15.00;;;;;7.27;44.63;102293.44;5059744;28;47337;-50
2022/02/28 01:03:57;;;;;;;;;13.25;12.00;;;;;7.24;44.67;102290.72;5059324;28;45322;-46
2022/02/28 01:06:22;;;;;;;;;16.75;15.50;;;;;7.23;44.57;102290.69;5059171;28;45311;-47
2022/02/28 01:08:48;;;;;;;;;14.75;13.50;;;;;7.19;44.60;102299.31;5057602;28;45375;-49
2022/02/28 01:11:13;;;;;;;;;14.25;12.50;;;;;7.18;44.66;102293.19;5058864;28;45431;-48
2022/02/28 01:13:38;;;;;;;;;19.75;16.00;;;;;7.14;44.77;102297.47;5059004;28;45339;-49
2022/02/28 01:16:04;;;;;;;;;13.00;11.25;;;;;7.12;44.72;102293.94;5057903;28;45368;-50
2022/02/28 01:18:29;;;;;;;;;14.50;13.50;;;;;7.09;44.82;102295.59;5057953;28;45311;-48
2022/02/28 01:20:54;;;;;;;;;16.50;12.50;;;;;7.07;44.90;102290.31;5061380;28;47238;-46
2022/02/28 01:23:20;;;;;;;;;11.50;11.50;;;;;7.06;44.86;102290.28;5062548;28;45307;-47
2022/02/28 01:25:46;;;;;;;;;15.75;13.75;;;;;7.04;44.89;102291.97;5062380;28;45365;-48
2022/02/28 01:28:12;;;;;;;;;15.25;12.00;;;;;7.01;44.96;102287.56;5062210;28;45213;-50
2022/02/28 01:30:38;;;;;;;;;14.00;12.50;;;;;6.99;44.99;102290.13;5062227;28;45249;-47
2022/02/28 01:33:05;;;;;;;;;19.25;11.50;;;;;6.97;44.99;102286.59;5062306;28;45327;-51
2022/02/28 01:35:31;;;;;;;;;13.00;10.75;;;;;6.93;44.92;102284.75;5062304;28;45475;-47
2022/02/28 01:37:57;;;;;;;;;16.75;11.25;;;;;6.94;45.00;102293.47;5060975;28;45452;-48
2022/02/28 01:40:23;;;;;;;;;18.50;11.75;;;;;6.91;44.69;102289.03;5061899;28;45504;-47
2022/02/28 01:42:48;;;;;;;;;14.00;12.00;;;;;6.90;45.09;102291.63;5061956;28;45481;-47
2022/02/28 01:45:17;;;;;;;;;16.25;14.50;;;;;6.88;45.01;102288.97;5062281;28;45298;-48
2022/02/28 01:47:43;;;;;;;;;10.75;10.00;;;;;6.85;45.02;102285.41;5062288;28;45601;-47
2022/02/28 01:50:09;;;;;;;;;12.00;11.50;;;;;6.82;45.00;102281.84;5062040;28;46602;-49
2022/02/28 01:52:35;;;;;;;;;15.00;14.00;;;;;6.78;45.21;102282.63;5062037;28;45231;-49
2022/02/28 01:55:01;;;;;;;;;13.50;10.00;;;;;6.77;45.07;102283.47;5061834;28;45402;-50
2022/02/28 01:57:27;;;;;;;;;15.50;10.25;;;;;6.73;45.14;102278.09;5062094;28;45479;-48
2022/02/28 01:59:52;;;;;;;;;14.50;11.00;;;;;6.73;45.15;102278.09;5060300;28;46680;-47
2022/02/28 02:02:18;;;;;;;;;5.75;5.75;;;;;6.70;45.05;102276.28;5064701;28;45451;-47
2022/02/28 02:04:43;;;;;;;;;15.25;10.75;;;;;6.69;45.15;102287.59;5062084;28;45290;-49
2022/02/28 02:07:10;;;;;;;;;11.25;10.00;;;;;6.65;45.16;102277.91;5061750;28;45297;-48
2022/02/28 02:09:35;;;;;;;;;15.25;11.00;;;;;6.64;45.21;102278.75;5060288;28;46115;-49
2022/02/28 02:12:01;;;;;;;;;10.25;10.25;;;;;6.61;45.23;102268.22;5062100;28;45277;-50
2022/02/28 02:14:28;;;;;;;;;12.00;11.75;;;;;6.62;45.33;102270.00;5061638;28;45182;-46
2022/02/28 02:16:53;;;;;;;;;14.25;10.25;;;;;6.59;45.22;102265.56;5061699;28;45343;-46
2022/02/28 02:19:18;;;;;;;;;11.25;11.00;;;;;6.59;45.41;102262.06;5061462;28;45258;-46
2022/02/28 02:21:44;;;;;;;;;14.25;12.00;;;;;6.57;45.11;102262.03;5061681;28;45189;-48
2022/02/28 02:24:09;;;;;;;;;9.75;8.00;;;;;6.53;45.35;102254.06;5061671;28;45285;-49
2022/02/28 02:26:35;;;;;;;;;10.00;9.75;;;;;6.50;45.13;102253.16;5061600;28;45311;-46
2022/02/28 02:29:00;;;;;;;;;10.25;9.25;;;;;6.50;45.09;102258.38;5061202;28;45321;-48
2022/02/28 02:31:26;;;;;;;;;11.50;8.00;;;;;6.50;45.35;102257.47;5060988;28;45263;-48
2022/02/28 02:33:52;;;;;;;;;13.50;11.25;;;;;6.52;45.42;102265.38;5060248;28;45373;-49
2022/02/28 02:36:18;;;;;;;;;13.00;12.25;;;;;6.49;45.35;102269.66;5061520;28;45582;-49
2022/02/28 02:38:44;;;;;;;;;11.75;11.25;;;;;6.50;45.55;102268.81;5061252;28;46043;-50
2022/02/28 02:41:10;;;;;;;;;11.75;9.25;;;;;6.48;45.42;102262.66;5061063;28;45465;-50
2022/02/28 02:43:37;;;;;;;;;12.50;10.75;;;;;6.47;45.31;102266.13;5059722;28;45314;-49
2022/02/28 02:46:03;;;;;;;;;10.00;8.25;;;;;6.46;45.50;102266.94;5061368;28;45415;-46
2022/02/28 02:48:28;;;;;;;;;8.50;8.25;;;;;6.47;45.48;102275.69;5061006;28;45344;-48
2022/02/28 02:50:55;;;;;;;;;13.25;9.75;;;;;6.46;45.40;102268.69;5061187;28;45367;-48
2022/02/28 02:53:21;;;;;;;;;11.00;9.00;;;;;6.43;45.55;102269.50;5061252;28;45229;-49
2022/02/28 02:55:47;;;;;;;;;11.25;9.00;;;;;6.45;45.44;102270.44;5060931;28;45541;-49
2022/02/28 02:58:13;;;;;;;;;9.00;9.00;;;;;6.42;45.24;102272.94;5060684;28;45435;-48
2022/02/28 03:00:48;;;;;;;;;8.50;8.50;;;;;6.43;45.53;102269.50;5060923;28;45248;-47
2022/02/28 03:03:17;;;;;;;;;9.75;8.50;;;;;6.43;45.51;102274.72;5063956;28;45377;-50
2022/02/28 03:05:42;;;;;;;;;10.25;10.00;;;;;6.42;45.44;102265.09;5059674;28;45582;-47
2022/02/28 03:08:08;;;;;;;;;10.75;10.25;;;;;6.41;45.42;102270.31;5060622;28;45527;-48
2022/02/28 03:10:33;;;;;;;;;8.50;8.50;;;;;6.37;45.66;102258.00;5060776;28;45216;-48
2022/02/28 03:12:59;;;;;;;;;9.00;8.75;;;;;6.40;45.55;102268.53;5060707;28;45150;-51
2022/02/28 03:15:25;;;;;;;;;15.25;10.75;;;;;6.38;45.49;102263.25;5060911;28;45484;-50
2022/02/28 03:17:50;;;;;;;;;10.25;7.75;;;;;6.37;45.43;102252.78;5060605;28;45300;-49
2022/02/28 03:20:15;;;;;;;;;13.25;9.50;;;;;6.37;45.49;102255.41;5060882;28;45338;-49
2022/02/28 03:22:41;;;;;;;;;13.50;10.50;;;;;6.36;45.57;102257.09;5059713;28;45816;-48
2022/02/28 03:25:06;;;;;;;;;11.00;10.25;;;;;6.35;45.52;102250.09;5060521;28;45414;-49
2022/02/28 03:27:33;;;;;;;;;13.25;8.00;;;;;6.36;45.47;102254.50;5060257;28;45318;-51
2022/02/28 03:29:58;;;;;;;;;9.75;8.75;;;;;6.34;45.59;102249.22;5060595;28;45259;-51
2022/02/28 03:32:24;;;;;;;;;8.25;6.50;;;;;6.34;45.63;102248.38;5060677;28;45388;-48
2022/02/28 03:34:49;;;;;;;;;12.00;10.75;;;;;6.35;45.50;102252.72;5060591;28;45523;-47
2022/02/28 03:37:15;;;;;;;;;10.00;8.00;;;;;6.35;45.42;102255.34;5060384;28;45323;-49
2022/02/28 03:39:40;;;;;;;;;11.25;10.75;;;;;6.30;45.53;102236.94;5060276;28;45309;-47
2022/02/28 03:42:06;;;;;;;;;10.50;9.00;;;;;6.31;45.33;102243.94;5059563;28;45640;-48
2022/02/28 03:44:32;;;;;;;;;10.75;6.50;;;;;6.29;45.69;102245.63;5060387;28;45550;-49
2022/02/28 03:46:57;;;;;;;;;11.75;9.75;;;;;6.30;45.60;102246.50;5060044;28;45355;-49
2022/02/28 03:49:23;;;;;;;;;11.25;9.50;;;;;6.29;45.78;102253.44;5060276;28;45286;-50
2022/02/28 03:51:48;;;;;;;;;13.75;10.25;;;;;6.28;45.79;102254.28;5060353;28;45225;-48
2022/02/28 03:54:14;;;;;;;;;12.50;11.50;;;;;6.25;45.51;102248.09;5060202;28;45405;-47
2022/02/28 03:56:41;;;;;;;;;10.00;9.00;;;;;6.27;45.85;102251.63;5060148;28;45330;-50
2022/02/28 03:59:08;;;;;;;;;13.25;11.00;;;;;6.27;45.56;102259.47;5059938;28;45539;-48
2022/02/28 04:01:34;;;;;;;;;8.75;8.25;;;;;6.25;45.77;102248.09;5061872;28;45518;-48
2022/02/28 04:04:00;;;;;;;;;8.50;8.50;;;;;6.24;45.64;102248.94;5060004;28;45555;-48
2022/02/28 04:06:25;;;;;;;;;14.50;11.75;;;;;6.24;45.76;102244.59;5059960;28;45354;-51
2022/02/28 04:08:51;;;;;;;;;11.00;11.00;;;;;6.23;45.64;102234.13;5059608;28;45251;-50
2022/02/28 04:11:16;;;;;;;;;2.75;1.00;;;;;6.21;45.68;102233.19;5058726;28;45414;-49
2022/02/28 04:13:42;;;;;;;;;10.00;8.75;;;;;6.22;45.56;102237.59;5059816;28;45477;-46
2022/02/28 04:16:07;;;;;;;;;14.50;13.00;;;;;6.20;45.73;102244.47;5059852;28;46123;-49
2022/02/28 04:18:33;;;;;;;;;9.50;9.50;;;;;6.17;45.69;102234.84;5060019;28;45248;-47
2022/02/28 04:20:58;;;;;;;;;12.50;10.00;;;;;6.15;45.71;102236.50;5059829;28;45432;-47
2022/02/28 04:23:24;;;;;;;;;13.50;8.25;;;;;6.11;45.85;102232.94;5060003;28;45290;-48
2022/02/28 04:25:49;;;;;;;;;10.50;7.25;;;;;6.12;45.41;102247.75;5059595;28;46127;-49
2022/02/28 04:28:15;;;;;;;;;9.50;9.00;;;;;6.12;45.84;102252.97;5058297;28;45657;-47
2022/02/28 04:30:40;;;;;;;;;10.00;9.00;;;;;6.11;45.65;102261.66;5059735;28;45232;-47
2022/02/28 04:33:06;;;;;;;;;11.50;9.00;;;;;6.10;45.74;102259.88;5059725;28;45209;-47
2022/02/28 04:35:31;;;;;;;;;12.75;10.25;;;;;6.10;45.76;102261.59;5059564;28;46239;-46
2022/02/28 04:37:57;;;;;;;;;14.25;13.25;;;;;6.10;45.67;102264.19;5059798;28;45303;-47
2022/02/28 04:40:22;;;;;;;;;16.75;9.25;;;;;6.10;45.64;102265.09;5058319;28;45403;-50
2022/02/28 04:42:48;;;;;;;;;9.50;7.75;;;;;6.07;45.66;102267.59;5058300;28;45236;-48
2022/02/28 04:45:13;;;;;;;;;14.25;10.75;;;;;6.05;45.60;102266.69;5059448;28;45476;-51
2022/02/28 04:47:38;;;;;;;;;12.75;9.50;;;;;6.05;45.70;102271.00;5059701;28;45316;-50
2022/02/28 04:50:05;;;;;;;;;15.00;12.75;;;;;6.01;45.79;102260.50;5058202;28;45335;-49
2022/02/28 04:52:31;;;;;;;;;12.75;12.75;;;;;6.01;45.82;102270.03;5059588;28;45277;-48
2022/02/28 04:54:56;;;;;;;;;14.00;12.00;;;;;6.00;45.68;102278.75;5062769;28;45563;-50
2022/02/28 04:57:21;;;;;;;;;11.25;10.75;;;;;5.98;45.64;102265.63;5061798;28;45176;-48
2022/02/28 04:59:47;;;;;;;;;13.00;11.50;;;;;5.96;45.88;102261.16;5062840;28;45183;-47
2022/02/28 05:02:12;;;;;;;;;14.50;12.75;;;;;5.93;45.72;102261.97;5063633;28;45185;-50
2022/02/28 05:04:37;;;;;;;;;13.00;8.75;;;;;5.92;45.91;102267.13;5061304;28;48131;-46
2022/02/28 05:07:03;;;;;;;;;15.25;12.75;;;;;5.89;45.67;102262.72;5062795;28;45435;-52
2022/02/28 05:09:28;;;;;;;;;13.00;12.50;;;;;5.90;45.76;102268.81;5062664;28;45429;-47
2022/02/28 05:11:54;;;;;;;;;10.75;8.75;;;;;5.86;45.78;102265.22;5062926;28;45447;-48
2022/02/28 05:14:19;;;;;;;;;12.00;9.00;;;;;5.87;45.78;102269.59;5061048;28;45881;-47
2022/02/28 05:16:45;;;;;;;;;14.00;13.00;;;;;5.86;45.75;102279.16;5062753;28;45245;-46
2022/02/28 05:19:10;;;;;;;;;11.25;10.75;;;;;5.85;45.87;102280.00;5062966;28;45366;-49
2022/02/28 05:21:36;;;;;;;;;13.75;12.75;;;;;5.85;45.83;102282.63;5062610;28;45210;-47
2022/02/28 05:24:02;;;;;;;;;9.25;9.00;;;;;5.84;45.83;102288.66;5062568;28;45452;-49
2022/02/28 05:26:27;;;;;;;;;8.00;6.50;;;;;5.83;45.81;102286.00;5062522;28;45252;-50
2022/02/28 05:28:53;;;;;;;;;13.25;12.00;;;;;5.82;45.99;102286.84;5062306;28;45392;-48
2022/02/28 05:31:18;;;;;;;;;8.75;8.50;;;;;5.81;45.62;102290.28;5062384;28;45359;-47
2022/02/28 05:33:44;;;;;;;;;16.25;10.00;;;;;5.79;45.79;102292.84;5062426;28;46021;-48
2022/02/28 05:36:09;;;;;;;;;10.25;10.25;;;;;5.76;45.70;102300.59;5062373;28;45315;-48
2022/02/28 05:38:35;;;;;;;;;11.00;10.00;;;;;5.73;45.90;102295.28;5061186;28;45362;-47
2022/02/28 05:41:01;;;;;;;;;9.25;7.75;;;;;5.72;45.50;102301.34;5062167;28;45450;-47
2022/02/28 05:43:27;;;;;;;;;13.25;12.25;;;;;5.71;45.75;102302.19;5060582;28;46022;-47
2022/02/28 05:45:52;;;;;;;;;12.25;9.75;;;;;5.69;45.85;102304.72;5062198;28;45538;-49
2022/02/28 05:48:18;;;;;;;;;12.25;9.50;;;;;5.67;46.14;102302.91;5062268;28;45172;-49
2022/02/28 05:50:43;;;;;;;;;14.25;13.00;;;;;5.66;46.22;102303.75;5062172;28;45549;-48
2022/02/28 05:53:08;;;;;;;;;10.25;8.75;;;;;5.66;46.02;102307.25;5062060;28;45261;-50
2022/02/28 05:55:36;;;;;;;;;16.00;15.50;;;;;5.64;46.03;102316.75;5061922;28;45212;-48
2022/02/28 05:58:02;;;;;;;;;18.00;13.00;;;;;5.65;45.99;102309.81;5062004;28;45660;-47
2022/02/28 06:00:27;;;;;;;;;13.50;11.25;;;;;5.66;46.10;102316.78;5061884;28;45372;-48
2022/02/28 06:02:52;;;;;;;;;12.00;9.25;;;;;5.65;45.98;102318.53;5064855;28;45446;-51
2022/02/28 06:05:19;;;;;;;;;14.25;12.50;;;;;5.62;45.82;102315.84;5060979;28;45422;-47
2022/02/28 06:07:44;;;;;;;;;13.00;10.50;;;;;5.63;45.90;102321.91;5061766;28;45458;-50
2022/02/28 06:10:10;;;;;;;;;13.25;13.00;;;;;5.61;46.03;102319.28;5061531;28;45308;-48
2022/02/28 06:12:35;;;;;;;;;13.75;12.25;;;;;5.61;46.00;102334.00;5061477;28;46278;-49
2022/02/28 06:15:00;;;;;;;;;13.50;9.50;;;;;5.59;46.09;102331.38;5061666;28;45410;-48
2022/02/28 06:17:26;;;;;;;;;9.50;7.50;;;;;5.58;45.97;102328.72;5061930;28;45338;-49
2022/02/28 06:19:51;;;;;;;;;12.00;12.00;;;;;5.57;46.00;102330.41;5061762;28;45408;-47
2022/02/28 06:22:17;;;;;;;;;14.00;11.00;;;;;5.54;46.20;102325.13;5061664;28;46053;-46
2022/02/28 06:24:42;;;;;;;;;11.25;9.50;;;;;5.53;46.03;102334.69;5061397;28;45367;-50
2022/02/28 06:27:07;;;;;;;;;13.25;12.50;;;;;5.50;46.33;102326.75;5061615;28;45334;-49
2022/02/28 06:29:33;;;;;;;;;12.00;9.75;;;;;5.51;45.92;102338.09;5061031;28;45219;-47
2022/02/28 06:31:58;;;;;;;;;14.50;11.00;;;;;5.50;46.51;102334.56;5061396;28;46222;-48
2022/02/28 06:34:23;;;;;;;;;14.50;10.75;;;;;5.49;46.21;102345.81;5061470;28;45434;-50
2022/02/28 06:36:49;;;;;;;;;12.75;12.25;;;;;5.47;46.09;102344.91;5061542;28;45764;-49
2022/02/28 06:39:14;;;;;;;;;22.50;14.75;;;;;5.45;45.79;102340.50;5076886;27;45408;-49
2022/02/28 06:41:40;;;;;;;;;18.25;17.25;;;;;5.42;46.23;102333.44;5061086;28;46062;-47
2022/02/28 06:44:06;;;;;;;;;15.00;11.75;;;;;5.44;46.19;102331.75;5059657;28;45246;-49
2022/02/28 06:46:31;;;;;;;;;13.75;12.75;;;;;5.44;46.09;102336.09;5061414;28;45400;-48
2022/02/28 06:48:57;;;;;;;;;14.25;12.25;;;;;5.42;46.15;102333.44;5061189;28;45275;-48
2022/02/28 06:51:22;;;;;;;;;12.25;11.25;;;;;5.42;46.04;102341.28;5060984;28;46407;-51
2022/02/28 06:53:48;;;;;;;;;16.25;13.75;;;;;5.40;46.02;102342.94;5061114;28;45389;-47
2022/02/28 06:56:13;;;;;;;;;18.00;15.00;;;;;5.41;46.12;102346.41;5061438;28;45522;-46
2022/02/28 06:58:38;;;;;;;;;18.00;13.75;;;;;5.38;46.45;102349.81;5059510;28;45363;-51
2022/02/28 07:01:06;;;;;;;;;14.75;12.75;;;;;5.39;46.22;102358.53;5060872;28;46548;-50
2022/02/28 07:03:32;;;;;;;;;19.25;17.75;;;;;5.37;46.15;102354.16;5064201;28;45403;-47
2022/02/28 07:05:58;;;;;;;;;20.25;15.75;;;;;5.37;46.39;102355.84;5059468;28;45552;-49
2022/02/28 07:08:24;;;;;;;;;22.00;18.25;;;;;5.34;46.32;102359.25;5060279;28;45406;-50
2022/02/28 07:10:51;;;;;;;;;25.50;16.25;;;;;5.35;46.14;102355.81;5060540;28;46318;-48
2022/02/28 07:13:16;;;;;;;;;25.00;19.75;;;;;5.31;46.09;102358.28;5060507;28;45384;-46
2022/02/28 07:15:43;;;;;;;;;17.25;16.00;;;;;5.33;46.64;102360.09;5060546;28;45403;-48
2022/02/28 07:18:09;;;;;;;;;23.25;16.50;;;;;5.32;46.49;102360.03;5059909;28;45299;-49
2022/02/28 07:20:35;;;;;;;;;18.75;17.00;;;;;5.32;46.38;102362.63;5060590;28;45424;-50
2022/02/28 07:23:02;;;;;;;;;16.25;14.00;;;;;5.32;46.71;102365.25;5060580;28;45425;-47
2022/02/28 07:25:28;;;;;;;;;24.50;18.75;;;;;5.31;46.50;102371.31;5060593;28;45507;-47
2022/02/28 07:27:54;;;;;;;;;17.50;16.25;;;;;5.32;46.49;102370.47;5059035;28;45280;-51
2022/02/28 07:30:19;;;;;;;;;16.50;13.00;;;;;5.31;46.66;102363.50;5060511;28;45583;-48
2022/02/28 07:32:44;;;;;;;;;13.50;13.50;;;;;5.31;46.52;102372.19;5060595;28;45162;-51
2022/02/28 07:35:10;;;;;;;;;17.50;15.50;;;;;5.29;46.33;102363.41;5060706;28;45414;-50
2022/02/28 07:37:37;;;;;;;;;15.00;15.00;;;;;5.31;46.41;102356.56;5060591;28;45285;-45
2022/02/28 07:40:08;;;;;;;;;17.75;15.25;;;;;5.31;46.56;102356.56;5058937;28;47520;-47
2022/02/28 07:42:34;;;;;;;;;21.75;19.00;;;;;5.31;46.63;102356.56;5060085;28;45232;-47
2022/02/28 07:45:00;;;;;;;;;20.75;18.75;;;;;5.32;46.60;102358.31;5060583;28;45225;-50
2022/02/28 07:47:25;;;;;;;;;33.25;28.75;;;;;5.34;46.69;102358.38;5060121;28;45174;-49
2022/02/28 07:49:51;;;;;;;;;22.75;20.75;;;;;5.34;46.74;102358.38;5060131;28;45312;-50
2022/02/28 07:52:16;;;;;;;;;21.25;19.00;;;;;5.35;46.92;102362.75;5058904;28;45894;-50
2022/02/28 07:54:42;;;;;;;;;22.00;18.25;;;;;5.36;46.97;102362.81;5060058;28;45711;-54
2022/02/28 07:57:07;;;;;;;;;22.00;16.25;;;;;5.37;46.83;102361.97;5060001;28;45304;-51
2022/02/28 07:59:32;;;;;;;;;16.00;14.50;;;;;5.40;46.83;102368.13;5058402;28;48352;-50
2022/02/28 08:01:58;;;;;;;;;21.25;17.75;;;;;5.37;46.83;102367.19;5062335;28;45446;-50
2022/02/28 08:04:23;;;;;;;;;21.75;18.25;;;;;5.41;47.08;102381.22;5060280;28;45418;-49
2022/02/28 08:06:48;;;;;;;;;20.25;17.25;;;;;5.45;46.85;102390.03;5058326;28;45568;-51
2022/02/28 08:09:14;;;;;;;;;18.50;17.00;;;;;5.47;46.96;102391.84;5059887;28;45308;-47
2022/02/28 08:11:39;;;;;;;;;19.25;16.00;;;;;5.50;46.94;102394.53;5059678;28;45300;-47
2022/02/28 08:14:05;;;;;;;;;22.75;18.50;;;;;5.52;46.76;102395.50;5059895;28;45259;-47
2022/02/28 08:16:30;;;;;;;;;42.50;36.50;;;;;5.56;46.79;102395.59;5059838;28;45536;-48
2022/02/28 08:18:55;;;;;;;;;29.75;23.00;;;;;5.61;46.88;102394.00;5059803;28;45608;-50
2022/02/28 08:21:21;;;;;;;;;25.25;18.75;;;;;5.63;46.91;102388.00;5059726;28;45343;-50
2022/02/28 08:23:47;;;;;;;;;19.75;18.00;;;;;5.67;46.85;102389.00;5060002;28;45287;-48
2022/02/28 08:26:12;;;;;;;;;24.50;21.25;;;;;5.69;46.99;102382.13;5059429;28;45241;-47
2022/02/28 08:28:38;;;;;;;;;25.25;19.50;;;;;5.73;46.98;102389.19;5058903;28;46123;-46
2022/02/28 08:31:03;;;;;;;;;20.50;18.25;;;;;5.76;46.80;102376.25;5059603;28;45430;-46
2022/02/28 08:33:29;;;;;;;;;25.50;19.50;;;;;5.82;46.83;102384.28;5058463;28;45484;-48
2022/02/28 08:35:55;;;;;;;;;20.25;20.25;;;;;5.86;46.88;102382.63;5059553;28;45224;-50
2022/02/28 08:38:21;;;;;;;;;6.25;3.50;;;;;5.91;47.00;102375.88;5058343;28;46905;-50
2022/02/28 08:40:46;;;;;;;;;23.25;18.75;;;;;5.94;47.01;102369.84;5059442;28;46356;-47
2022/02/28 08:43:12;;;;;;;;;21.50;17.25;;;;;5.99;46.84;102357.88;5059504;28;45473;-47
2022/02/28 08:45:37;;;;;;;;;20.50;18.50;;;;;6.06;47.03;102364.16;5059398;28;45453;-49
2022/02/28 08:48:03;;;;;;;;;24.25;20.00;;;;;6.09;46.92;102359.91;5059271;28;45609;-49
2022/02/28 08:50:28;;;;;;;;;20.00;16.25;;;;;6.17;47.08;102361.00;5059340;28;45385;-47
2022/02/28 08:52:54;;;;;;;;;22.00;16.75;;;;;6.24;47.06;102355.97;5059655;28;45313;-50
2022/02/28 08:55:19;;;;;;;;;17.25;16.50;;;;;6.32;46.94;102354.47;5059266;28;45393;-48
2022/02/28 08:57:45;;;;;;;;;21.25;19.25;;;;;6.39;47.13;102348.59;5059078;28;46060;-48
2022/02/28 09:00:11;;;;;;;;;24.00;19.00;;;;;6.46;47.08;102340.09;5057836;28;45304;-46
2022/02/28 09:02:38;;;;;;;;;23.00;22.50;;;;;6.54;47.21;102344.66;5061564;28;45367;-49
2022/02/28 09:05:04;;;;;;;;;19.50;18.00;;;;;6.59;47.07;102343.03;5059103;28;45375;-48
2022/02/28 09:07:31;;;;;;;;;27.50;18.75;;;;;6.68;46.92;102353.78;5058900;28;46227;-49
2022/02/28 09:09:57;;;;;;;;;15.25;15.00;;;;;6.76;46.73;102360.06;5057538;28;45410;-49
2022/02/28 09:12:22;;;;;;;;;24.00;17.75;;;;;6.85;46.83;102356.81;5059234;28;45319;-47
2022/02/28 09:14:47;;;;;;;;;17.25;17.25;;;;;6.95;47.07;102357.97;5058995;28;45311;-47
2022/02/28 09:17:13;;;;;;;;;21.75;19.50;;;;;7.04;47.01;102358.19;5059023;28;45555;-47
2022/02/28 09:19:38;;;;;;;;;19.00;15.50;;;;;7.09;46.75;102343.50;5053777;28;45435;-47
2022/02/28 09:22:05;;;;;;;;;22.50;19.25;;;;;7.22;47.07;102347.34;5057774;28;45393;-45
2022/02/28 09:24:33;;;;;;;;;20.25;18.25;;;;;7.33;46.81;102344.97;5058835;28;45323;-49
2022/02/28 09:26:59;;;;;;;;;21.00;16.75;;;;;7.39;47.05;102345.13;5058857;28;45483;-46
2022/02/28 09:29:24;;;;;;;;;18.50;18.50;;;;;7.53;46.98;102345.47;5058560;28;45406;-47
2022/02/28 09:31:50;;;;;;;;;17.75;17.00;;;;;7.64;46.96;102348.34;5057821;28;45611;-48
2022/02/28 09:34:15;;;;;;;;;22.25;20.00;;;;;7.73;46.67;102345.94;5057489;28;45548;-46
2022/02/28 09:36:41;;;;;;;;;23.00;19.25;;;;;7.87;46.77;102363.72;5058788;28;46035;-46
2022/02/28 09:39:06;;;;;;;;;20.50;19.25;;;;;7.97;46.85;102365.69;5057265;28;45224;-48
2022/02/28 09:41:32;;;;;;;;;23.50;21.00;;;;;8.08;46.86;102363.31;5060619;28;45422;-48
2022/02/28 09:43:58;;;;;;;;;18.50;13.00;;;;;8.19;46.68;102367.06;5061974;28;45284;-52
2022/02/28 09:46:24;;;;;;;;;17.25;15.25;;;;;8.31;46.80;102374.28;5062177;28;46218;-49
2022/02/28 09:48:50;;;;;;;;;19.75;18.50;;;;;8.42;47.07;102379.75;5060747;28;45310;-48
2022/02/28 09:51:15;;;;;;;;;17.00;15.50;;;;;8.54;46.82;102384.38;5062204;28;45269;-49
2022/02/28 09:53:41;;;;;;;;;21.25;17.00;;;;;8.63;46.75;102379.34;5062169;28;45456;-48
2022/02/28 09:56:06;;;;;;;;;17.75;16.25;;;;;8.77;46.89;102385.72;5062072;28;45256;-49
2022/02/28 09:58:33;;;;;;;;;24.75;22.50;;;;;8.89;46.64;102386.81;5061791;28;45259;-51
2022/02/28 10:00:59;;;;;;;;;20.75;20.50;;;;;9.01;46.74;102378.31;5060961;28;45355;-51
2022/02/28 10:03:25;;;;;;;;;18.50;16.75;;;;;9.15;46.65;102370.69;5064994;28;45228;-48
2022/02/28 10:05:59;;;;;;;;;21.75;18.00;;;;;9.30;46.71;102378.81;5060872;28;48226;-48
2022/02/28 10:08:24;;;;;;;;;21.50;19.25;;;;;9.44;46.72;102386.94;5061771;28;45506;-47
2022/02/28 10:10:50;;;;;;;;;22.00;17.00;;;;;9.53;46.63;102378.31;5061754;28;45238;-48
2022/02/28 10:13:28;;;;;;;;;22.75;20.00;;;;;9.77;46.60;102390.94;5061570;28;45489;-51
2022/02/28 10:15:56;;;;;;;;;21.50;17.50;;;;;9.90;46.73;102378.91;5061725;28;45355;-48
2022/02/28 10:18:25;;;;;;;;;21.75;18.75;;;;;10.01;46.66;102374.69;5061807;28;45217;-47
2022/02/28 10:20:51;;;;;;;;;19.75;19.50;;;;;10.13;46.79;102378.34;5061824;28;45297;-47
2022/02/28 10:23:16;;;;;;;;;22.25;19.00;;;;;10.31;46.57;102375.94;5061901;28;45505;-47
2022/02/28 10:25:44;;;;;;;;;16.75;15.50;;;;;10.43;46.62;102372.66;5060204;28;46294;-47
2022/02/28 10:28:15;;;;;;;;;24.75;20.00;;;;;10.59;46.65;102364.94;5061551;28;45480;-49
2022/02/28 10:30:52;;;;;;;;;22.75;20.75;;;;;10.73;46.67;102366.00;5061521;28;45303;-49
2022/02/28 10:33:17;;;;;;;;;24.00;23.00;;;;;10.87;46.56;102356.50;5061690;28;45324;-51
2022/02/28 10:36:01;;;;;;;;;19.75;18.00;;;;;11.00;46.20;102362.75;5060176;28;45415;-50
2022/02/28 10:38:32;;;;;;;;;19.75;18.75;;;;;11.14;46.36;102364.63;5061640;28;45277;-50
2022/02/28 10:40:59;;;;;;;;;23.75;20.75;;;;;11.27;46.51;102363.91;5060055;28;45187;-49
2022/02/28 10:43:26;;;;;;;;;23.50;20.75;;;;;11.38;46.20;102370.13;5060009;28;45291;-47
2022/02/28 10:45:52;;;;;;;;;18.50;16.50;;;;;11.51;46.19;102367.59;5061431;28;45282;-51
2022/02/28 10:48:17;;;;;;;;;24.50;22.00;;;;;11.60;46.04;102372.06;5061249;28;45475;-46
2022/02/28 10:50:43;;;;;;;;;23.50;21.75;;;;;11.67;45.99;102377.38;5059805;28;45331;-49
2022/02/28 10:53:20;;;;;;;;;21.25;19.00;;;;;11.82;46.03;102388.88;5076967;27;45336;-47
2022/02/28 10:55:47;;;;;;;;;27.00;22.25;;;;;11.91;45.86;102386.31;5059942;28;46354;-50
2022/02/28 10:58:18;;;;;;;;;18.50;18.50;;;;;12.00;45.87;102383.78;5060911;28;45490;-47
2022/02/28 11:00:59;;;;;;;;;23.25;19.75;;;;;12.08;45.68;102372.41;5061192;28;45327;-48
2022/02/28 11:03:47;;;;;;;;;21.75;19.50;;;;;12.18;45.57;102380.34;5061531;28;45622;-51
2022/02/28 11:06:19;;;;;;;;;17.50;17.50;;;;;12.28;45.64;102369.88;5061155;28;45382;-48
2022/02/28 11:08:45;;;;;;;;;21.00;18.50;;;;;12.41;45.47;102373.44;5042944;28;45385;-47
2022/02/28 11:11:13;;;;;;;;;24.00;20.50;;;;;12.52;45.50;102361.16;5060707;28;45285;-47
2022/02/28 11:13:40;;;;;;;;;24.75;22.00;;;;;12.63;45.64;102362.09;5060862;28;45323;-48